createdAt,value
2022-08-25T00:01:14.725Z,49.60
2022-08-25T00:03:43.294Z,49.90
2022-08-25T00:06:11.641Z,50.50
2022-08-25T00:08:39.853Z,50.48
2022-08-25T00:11:14.748Z,50.34
2022-08-25T00:13:44.959Z,50.35
2022-08-25T00:16:13.515Z,50.38
2022-08-25T00:18:41.593Z,50.52
2022-08-25T00:21:08.769Z,50.92
2022-08-25T00:23:35.266Z,51.39
2022-08-25T00:26:02.402Z,51.02
2022-08-25T00:28:31.031Z,51.01
2022-08-25T00:31:01.407Z,51.16
2022-08-25T00:33:31.096Z,50.91
2022-08-25T00:35:58.643Z,51.60
2022-08-25T00:38:25.381Z,51.66
2022-08-25T00:41:06.075Z,52.82
2022-08-25T00:43:40.623Z,53.58
2022-08-25T00:46:08.853Z,53.02
2022-08-25T00:48:36.693Z,52.97
2022-08-25T00:51:05.281Z,52.88
2022-08-25T00:53:32.220Z,52.84
2022-08-25T00:55:59.090Z,52.90
2022-08-25T00:58:30.940Z,52.95
2022-08-25T01:00:58.282Z,52.89
2022-08-25T01:03:32.863Z,52.86
2022-08-25T01:06:03.019Z,53.19
2022-08-25T01:08:32.293Z,53.85
2022-08-25T01:11:03.394Z,53.95
2022-08-25T01:13:34.316Z,53.85
2022-08-25T01:16:01.238Z,54.53
2022-08-25T01:18:28.744Z,55.11
2022-08-25T01:20:57.003Z,55.31
2022-08-25T01:23:24.595Z,55.68
2022-08-25T01:26:14.401Z,55.86
2022-08-25T01:29:02.781Z,56.10
2022-08-25T01:31:30.635Z,56.34
2022-08-25T01:33:58.333Z,56.47
2022-08-25T01:36:27.588Z,56.37
2022-08-25T01:38:54.870Z,56.19
2022-08-25T01:41:35.401Z,56.21
2022-08-25T01:44:12.368Z,55.85
2022-08-25T01:46:43.317Z,55.41
2022-08-25T01:49:10.626Z,56.23
2022-08-25T01:51:47.121Z,56.37
2022-08-25T01:54:13.746Z,56.32
2022-08-25T01:56:40.338Z,56.21
2022-08-25T01:59:06.974Z,55.95
2022-08-25T02:01:33.712Z,55.76
2022-08-25T02:04:00.275Z,55.74
2022-08-25T02:06:33.103Z,55.52
2022-08-25T02:09:07.679Z,55.82
2022-08-25T02:11:36.735Z,55.57
2022-08-25T02:14:04.223Z,55.60
2022-08-25T02:16:34.219Z,55.67
2022-08-25T02:19:01.480Z,56.50
2022-08-25T02:21:28.469Z,56.86
2022-08-25T02:23:56.875Z,56.86
2022-08-25T02:26:23.609Z,57.18
2022-08-25T02:28:52.038Z,57.28
2022-08-25T02:31:21.029Z,57.63
2022-08-25T02:33:47.683Z,57.47
2022-08-25T02:36:14.280Z,57.85
2022-08-25T02:38:40.784Z,57.13
2022-08-25T02:41:14.566Z,56.80
2022-08-25T02:43:42.817Z,57.15
2022-08-25T02:46:11.352Z,56.42
2022-08-25T02:48:39.976Z,56.66
2022-08-25T02:51:09.764Z,56.15
2022-08-25T02:53:39.558Z,56.50
2022-08-25T02:56:09.602Z,56.29
2022-08-25T02:58:37.440Z,56.81
2022-08-25T03:01:04.923Z,57.76
2022-08-25T03:03:34.265Z,58.89
2022-08-25T03:06:03.206Z,60.09
2022-08-25T03:08:30.103Z,59.56
2022-08-25T03:10:56.569Z,59.14
2022-08-25T03:13:23.367Z,58.74
2022-08-25T03:15:50.785Z,59.02
2022-08-25T03:18:18.236Z,59.07
2022-08-25T03:20:45.898Z,59.49
2022-08-25T03:23:13.155Z,59.89
2022-08-25T03:26:00.707Z,60.31
2022-08-25T03:28:31.136Z,60.79
2022-08-25T03:30:59.037Z,60.99
2022-08-25T03:33:26.875Z,61.01
2022-08-25T03:35:53.699Z,61.34
2022-08-25T03:38:20.270Z,62.00
2022-08-25T03:40:46.800Z,62.59
2022-08-25T03:43:14.540Z,61.65
2022-08-25T03:45:45.318Z,60.54
2022-08-25T03:48:12.444Z,60.45
2022-08-25T03:50:50.682Z,59.88
2022-08-25T03:53:19.865Z,59.79
2022-08-25T03:55:46.679Z,59.50
2022-08-25T03:58:13.397Z,59.76
2022-08-25T04:00:39.993Z,60.04
2022-08-25T04:03:06.798Z,60.55
2022-08-25T04:05:33.321Z,61.53
2022-08-25T04:08:01.792Z,61.34
2022-08-25T04:10:29.160Z,61.82
2022-08-25T04:12:56.266Z,61.95
2022-08-25T04:15:22.850Z,62.23
2022-08-25T04:17:51.139Z,62.13
2022-08-25T04:20:18.888Z,61.77
2022-08-25T04:22:45.549Z,61.90
2022-08-25T04:25:12.722Z,62.34
2022-08-25T04:27:39.258Z,62.85
2022-08-25T04:30:07.000Z,62.67
2022-08-25T04:32:36.298Z,62.23
2022-08-25T04:35:04.291Z,61.96
2022-08-25T04:37:31.010Z,61.26
2022-08-25T04:39:57.615Z,61.56
2022-08-25T04:42:26.260Z,61.70
2022-08-25T04:44:52.812Z,61.79
2022-08-25T04:47:19.236Z,62.69
2022-08-25T04:49:45.668Z,62.52
2022-08-25T04:52:14.299Z,63.39
2022-08-25T04:54:42.123Z,63.83
2022-08-25T04:57:08.596Z,64.84
2022-08-25T04:59:35.133Z,64.89
2022-08-25T05:02:03.191Z,64.76
2022-08-25T05:04:31.439Z,64.91
2022-08-25T05:06:58.464Z,64.08
2022-08-25T05:09:25.872Z,63.62
2022-08-25T05:11:53.540Z,63.22
2022-08-25T05:14:25.722Z,62.79
2022-08-25T05:16:57.983Z,63.07
2022-08-25T05:19:25.207Z,62.62
2022-08-25T05:21:52.389Z,62.81
2022-08-25T05:24:19.403Z,63.24
2022-08-25T05:26:45.939Z,63.09
2022-08-25T05:29:13.196Z,62.72
2022-08-25T05:31:43.988Z,62.47
2022-08-25T05:34:12.461Z,62.69
2022-08-25T05:36:43.099Z,62.14
2022-08-25T05:39:10.450Z,61.24
2022-08-25T05:41:37.382Z,60.79
2022-08-25T05:44:04.292Z,60.23
2022-08-25T05:46:32.010Z,60.14
2022-08-25T05:48:58.982Z,59.33
2022-08-25T05:51:26.232Z,58.27
2022-08-25T05:53:52.862Z,61.58
2022-08-25T05:56:20.771Z,58.50
2022-08-25T05:58:47.877Z,56.07
2022-08-25T06:01:45.469Z,53.11
2022-08-25T06:04:13.139Z,50.88
2022-08-25T06:06:40.181Z,50.68
2022-08-25T06:09:08.665Z,49.97
2022-08-25T06:11:36.346Z,48.96
2022-08-25T06:14:03.022Z,49.09
2022-08-25T06:16:29.471Z,48.34
2022-08-25T06:18:55.978Z,47.31
2022-08-25T06:21:22.541Z,46.53
2022-08-25T06:23:49.305Z,46.67
2022-08-25T06:26:21.308Z,46.41
2022-08-25T06:28:49.429Z,45.74
2022-08-25T06:31:15.933Z,45.02
2022-08-25T06:33:43.978Z,44.34
2022-08-25T06:36:10.838Z,43.93
2022-08-25T06:38:37.324Z,43.08
2022-08-25T06:41:05.561Z,42.76
2022-08-25T06:43:33.161Z,42.89
2022-08-25T06:46:09.533Z,42.38
2022-08-25T06:48:36.005Z,42.18
2022-08-25T06:51:06.654Z,41.46
2022-08-25T06:53:33.831Z,41.73
2022-08-25T06:56:05.942Z,41.26
2022-08-25T06:58:33.825Z,41.10
2022-08-25T07:01:20.533Z,40.44
2022-08-25T07:03:48.048Z,40.18
2022-08-25T07:06:15.165Z,39.54
2022-08-25T07:08:46.337Z,39.29
2022-08-25T07:11:17.985Z,39.42
2022-08-25T07:13:45.768Z,39.06
2022-08-25T07:16:14.133Z,38.24
2022-08-25T07:18:41.552Z,38.20
2022-08-25T07:21:08.996Z,38.03
2022-08-25T07:23:36.434Z,38.18
2022-08-25T07:26:39.197Z,37.84
2022-08-25T07:29:14.064Z,37.61
2022-08-25T07:31:41.145Z,37.83
2022-08-25T07:34:27.406Z,38.23
2022-08-25T07:36:55.837Z,38.18
2022-08-25T07:39:23.580Z,38.51
2022-08-25T07:41:51.941Z,38.03
2022-08-25T07:44:20.706Z,38.92
2022-08-25T07:46:47.470Z,39.81
2022-08-25T07:49:16.468Z,39.87
2022-08-25T07:52:03.951Z,39.98
2022-08-25T07:54:34.508Z,39.58
2022-08-25T07:57:05.557Z,39.42
2022-08-25T07:59:38.983Z,38.25
2022-08-25T08:02:18.585Z,37.39
2022-08-25T08:04:49.530Z,37.20
2022-08-25T08:07:22.829Z,37.28
2022-08-25T08:09:56.120Z,37.54
2022-08-25T08:12:27.383Z,37.80
2022-08-25T08:14:54.068Z,39.00
2022-08-25T08:17:21.602Z,38.87
2022-08-25T08:19:48.179Z,38.18
2022-08-25T08:22:17.473Z,38.32
2022-08-25T08:24:54.069Z,38.57
2022-08-25T08:27:21.873Z,39.57
2022-08-25T08:29:48.470Z,39.51
2022-08-25T08:32:14.885Z,39.53
2022-08-25T08:34:41.683Z,40.55
2022-08-25T08:37:10.521Z,40.12
2022-08-25T08:39:38.044Z,41.28
2022-08-25T08:42:38.438Z,42.29
2022-08-25T08:45:22.549Z,42.92
2022-08-25T08:47:57.160Z,44.00
2022-08-25T08:50:34.551Z,42.19
2022-08-25T08:53:17.186Z,40.68
2022-08-25T08:55:52.636Z,40.12
2022-08-25T08:58:58.473Z,39.39
2022-08-25T09:01:30.744Z,38.94
2022-08-25T09:04:31.809Z,38.72
2022-08-25T09:07:03.238Z,38.42
2022-08-25T09:09:35.804Z,38.81
2022-08-25T09:12:34.002Z,38.41
2022-08-25T09:15:20.549Z,38.59
2022-08-25T09:18:12.052Z,38.35
2022-08-25T09:21:20.416Z,38.83
2022-08-25T09:24:05.638Z,39.42
2022-08-25T09:26:41.618Z,39.12
2022-08-25T09:29:16.501Z,38.61
2022-08-25T09:31:44.593Z,37.86
2022-08-25T09:34:16.538Z,38.19
2022-08-25T09:36:42.987Z,36.95
2022-08-25T09:39:09.936Z,36.71
2022-08-25T09:41:52.733Z,35.84
2022-08-25T09:44:20.986Z,36.36
2022-08-25T09:47:05.714Z,36.28
2022-08-25T09:49:44.080Z,36.84
2022-08-25T09:52:37.306Z,36.34
2022-08-25T09:55:15.981Z,37.36
2022-08-25T09:57:42.479Z,37.32
2022-08-25T10:00:36.750Z,36.60
2022-08-25T10:03:30.304Z,38.12
2022-08-25T10:06:07.809Z,39.65
2022-08-25T10:08:53.401Z,39.57
2022-08-25T10:11:39.926Z,38.64
2022-08-25T10:14:17.062Z,39.08
2022-08-25T10:16:46.927Z,38.97
2022-08-25T10:19:24.510Z,38.17
2022-08-25T10:22:08.197Z,38.49
2022-08-25T10:24:39.404Z,38.44
2022-08-25T10:27:10.166Z,38.99
2022-08-25T10:30:11.027Z,39.97
2022-08-25T10:33:02.023Z,40.18
2022-08-25T10:35:47.684Z,39.94
2022-08-25T10:38:36.451Z,39.72
2022-08-25T10:41:30.878Z,39.51
2022-08-25T10:44:32.515Z,39.00
2022-08-25T10:47:08.057Z,37.26
2022-08-25T10:49:45.978Z,37.90
2022-08-25T10:52:26.915Z,36.11
2022-08-25T10:55:24.535Z,36.77
2022-08-25T10:58:01.164Z,35.81
2022-08-25T11:00:37.309Z,36.23
2022-08-25T11:03:26.806Z,35.38
2022-08-25T11:05:59.576Z,34.70
2022-08-25T11:08:39.893Z,34.07
2022-08-25T11:11:34.971Z,34.79
2022-08-25T11:14:09.327Z,34.42
2022-08-25T11:17:04.752Z,34.81
2022-08-25T11:19:35.716Z,34.18
2022-08-25T11:22:10.562Z,35.37
2022-08-25T11:24:58.358Z,35.35
2022-08-25T11:27:33.967Z,34.85
2022-08-25T11:30:09.967Z,35.19
2022-08-25T11:32:38.285Z,35.72
2022-08-25T11:35:09.605Z,35.52
2022-08-25T11:37:53.376Z,35.51
2022-08-25T11:40:51.647Z,36.64
2022-08-25T11:43:35.712Z,36.36
2022-08-25T11:46:19.117Z,35.95
2022-08-25T11:49:28.182Z,35.27
2022-08-25T11:51:55.694Z,35.48
2022-08-25T11:54:41.655Z,34.57
2022-08-25T11:57:17.036Z,34.78
2022-08-25T11:59:57.006Z,35.33
2022-08-25T12:02:42.590Z,35.64
2022-08-25T12:05:32.432Z,35.76
2022-08-25T12:08:25.238Z,36.25
2022-08-25T12:10:52.194Z,35.64
2022-08-25T12:13:27.244Z,35.95
2022-08-25T12:15:57.075Z,35.68
2022-08-25T12:18:26.594Z,35.33
2022-08-25T12:20:53.086Z,35.56
2022-08-25T12:23:35.300Z,35.28
2022-08-25T12:26:39.515Z,35.47
2022-08-25T12:29:42.067Z,36.07
2022-08-25T12:32:43.817Z,35.16
2022-08-25T12:35:17.702Z,34.58
2022-08-25T12:38:05.175Z,34.98
2022-08-25T12:40:39.399Z,35.25
2022-08-25T12:43:33.455Z,35.13
2022-08-25T12:46:29.579Z,35.17
2022-08-25T12:49:05.052Z,34.60
2022-08-25T12:51:54.126Z,34.88
2022-08-25T12:54:30.242Z,34.79
2022-08-25T12:57:01.686Z,35.31
2022-08-25T12:59:34.918Z,34.99
2022-08-25T13:02:16.540Z,35.18
2022-08-25T13:05:18.268Z,35.24
2022-08-25T13:07:58.484Z,35.22
2022-08-25T13:10:46.682Z,34.64
2022-08-25T13:13:19.745Z,34.32
2022-08-25T13:15:58.150Z,33.85
2022-08-25T13:18:37.761Z,33.69
2022-08-25T13:21:15.220Z,33.46
2022-08-25T13:23:45.670Z,34.14
2022-08-25T13:26:22.256Z,34.32
2022-08-25T13:28:58.002Z,34.03
2022-08-25T13:31:29.932Z,34.79
2022-08-25T13:34:08.840Z,34.88
2022-08-25T13:37:02.479Z,34.76
2022-08-25T13:42:23.965Z,34.02
2022-08-25T13:44:55.310Z,34.52
2022-08-25T13:47:43.716Z,34.13
2022-08-25T13:50:21.315Z,34.35
2022-08-25T13:53:13.214Z,33.67
2022-08-25T13:55:51.399Z,33.97
2022-08-25T13:58:38.827Z,33.70
2022-08-25T14:01:47.191Z,33.39
2022-08-25T14:04:50.624Z,33.20
2022-08-25T14:07:19.557Z,33.06
2022-08-25T14:09:52.106Z,33.69
2022-08-25T14:12:36.773Z,34.51
2022-08-25T14:15:17.177Z,34.08
2022-08-25T14:17:48.606Z,34.29
2022-08-25T14:20:19.161Z,34.34
2022-08-25T14:22:46.138Z,33.86
2022-08-25T14:25:12.681Z,34.66
2022-08-25T14:28:03.719Z,34.38
2022-08-25T14:30:32.466Z,34.39
2022-08-25T14:33:02.182Z,33.63
2022-08-25T14:35:29.560Z,33.27
2022-08-25T14:37:58.137Z,33.58
2022-08-25T14:40:24.631Z,34.09
2022-08-25T14:42:51.309Z,33.56
2022-08-25T14:45:18.764Z,33.59
2022-08-25T14:47:49.636Z,33.86
2022-08-25T14:50:20.832Z,33.86
2022-08-25T14:52:48.241Z,33.52
2022-08-25T14:55:31.494Z,34.15
2022-08-25T14:57:59.143Z,34.03
2022-08-25T15:00:26.741Z,34.36
2022-08-25T15:02:54.795Z,34.08
2022-08-25T15:05:26.762Z,33.89
2022-08-25T15:08:14.308Z,34.26
2022-08-25T15:10:42.148Z,33.94
2022-08-25T15:13:10.616Z,34.41
2022-08-25T15:15:40.202Z,34.15
2022-08-25T15:18:20.876Z,34.86
2022-08-25T15:20:50.164Z,33.96
2022-08-25T15:23:20.351Z,34.21
2022-08-25T15:25:49.053Z,33.84
2022-08-25T15:28:21.928Z,33.66
2022-08-25T15:30:49.028Z,33.57
2022-08-25T15:33:15.466Z,33.65
2022-08-25T15:35:41.933Z,34.00
2022-08-25T15:38:10.012Z,33.08
2022-08-25T15:40:38.937Z,33.32
2022-08-25T15:43:05.886Z,33.27
2022-08-25T15:45:35.750Z,33.48
2022-08-25T15:48:02.356Z,33.28
2022-08-25T15:50:29.926Z,33.07
2022-08-25T15:52:57.788Z,33.23
2022-08-25T15:55:24.726Z,33.43
2022-08-25T15:57:51.339Z,33.58
2022-08-25T16:00:19.026Z,33.14
2022-08-25T16:02:46.327Z,33.11
2022-08-25T16:05:16.454Z,32.98
2022-08-25T16:07:45.722Z,33.23
2022-08-25T16:10:12.663Z,33.26
2022-08-25T16:12:40.047Z,33.30
2022-08-25T16:15:09.926Z,33.22
2022-08-25T16:17:38.872Z,33.58
2022-08-25T16:20:07.938Z,33.30
2022-08-25T16:22:40.219Z,33.67
2022-08-25T16:25:07.359Z,33.48
2022-08-25T16:27:38.554Z,33.46
2022-08-25T16:30:07.702Z,33.78
2022-08-25T16:32:34.944Z,33.58
2022-08-25T16:35:02.685Z,33.53
2022-08-25T16:37:29.746Z,33.29
2022-08-25T16:39:57.077Z,33.00
2022-08-25T16:42:24.185Z,32.92
2022-08-25T16:44:52.882Z,33.22
2022-08-25T16:47:25.205Z,33.38
2022-08-25T16:49:53.777Z,33.49
2022-08-25T16:52:39.235Z,33.75
2022-08-25T16:55:13.661Z,33.85
2022-08-25T16:57:43.425Z,33.86
2022-08-25T17:00:13.917Z,34.01
2022-08-25T17:02:41.616Z,34.16
2022-08-25T17:05:10.191Z,34.14
2022-08-25T17:07:37.419Z,34.14
2022-08-25T17:10:05.874Z,33.98
2022-08-25T17:12:32.918Z,33.92
2022-08-25T17:14:59.417Z,34.16
2022-08-25T17:17:27.084Z,34.30
2022-08-25T17:19:53.634Z,33.84
2022-08-25T17:22:22.302Z,34.48
2022-08-25T17:25:00.751Z,34.50
2022-08-25T17:27:28.128Z,34.09
2022-08-25T17:29:56.083Z,34.40
2022-08-25T17:32:28.922Z,34.58
2022-08-25T17:34:57.726Z,34.65
2022-08-25T17:37:24.541Z,34.58
2022-08-25T17:39:54.399Z,34.83
2022-08-25T17:42:30.343Z,34.48
2022-08-25T17:44:58.435Z,34.62
2022-08-25T17:47:26.876Z,34.61
2022-08-25T17:49:54.184Z,34.96
2022-08-25T17:52:25.413Z,34.67
2022-08-25T17:54:52.592Z,34.98
2022-08-25T17:57:19.485Z,35.31
2022-08-25T17:59:46.436Z,35.88
2022-08-25T18:02:12.903Z,36.39
2022-08-25T18:04:40.437Z,37.00
2022-08-25T18:07:07.330Z,37.86
2022-08-25T18:09:33.847Z,38.55
2022-08-25T18:12:00.486Z,38.75
2022-08-25T18:14:27.010Z,39.03
2022-08-25T18:16:53.894Z,39.26
2022-08-25T18:19:20.880Z,40.00
2022-08-25T18:21:47.462Z,40.07
2022-08-25T18:24:14.041Z,39.73
2022-08-25T18:26:40.748Z,39.22
2022-08-25T18:29:07.279Z,39.37
2022-08-25T18:31:34.352Z,39.21
2022-08-25T18:34:04.898Z,39.14
2022-08-25T18:36:32.461Z,39.21
2022-08-25T18:39:24.325Z,38.90
2022-08-25T18:41:50.921Z,39.39
2022-08-25T18:44:17.435Z,40.03
2022-08-25T18:46:45.519Z,40.67
2022-08-25T18:49:15.717Z,40.68
2022-08-25T18:51:44.290Z,40.54
2022-08-25T18:54:19.029Z,40.41
2022-08-25T18:56:50.207Z,39.95
2022-08-25T18:59:16.697Z,40.12
2022-08-25T19:01:44.540Z,40.62
2022-08-25T19:04:13.432Z,40.63
2022-08-25T19:06:40.004Z,41.12
2022-08-25T19:09:11.082Z,41.58
2022-08-25T19:11:38.085Z,41.99
2022-08-25T19:14:12.076Z,41.87
2022-08-25T19:16:41.624Z,42.04
2022-08-25T19:19:13.006Z,42.27
2022-08-25T19:21:42.724Z,42.41
2022-08-25T19:24:11.767Z,42.39
2022-08-25T19:26:39.118Z,42.57
2022-08-25T19:29:09.324Z,42.65
2022-08-25T19:31:36.569Z,42.64
2022-08-25T19:34:04.637Z,42.81
2022-08-25T19:36:31.800Z,43.67
2022-08-25T19:39:01.186Z,43.63
2022-08-25T19:41:30.617Z,44.01
2022-08-25T19:43:59.368Z,44.07
2022-08-25T19:46:35.604Z,44.02
2022-08-25T19:49:19.005Z,44.30
2022-08-25T19:51:51.073Z,44.69
2022-08-25T19:54:23.368Z,45.32
2022-08-25T19:56:54.672Z,45.91
2022-08-25T19:59:25.031Z,45.39
2022-08-25T20:01:51.606Z,46.00
2022-08-25T20:04:18.130Z,45.92
2022-08-25T20:06:48.418Z,46.14
2022-08-25T20:09:35.677Z,46.26
2022-08-25T20:12:02.161Z,45.93
2022-08-25T20:14:29.011Z,46.09
2022-08-25T20:16:55.499Z,46.43
2022-08-25T20:19:22.070Z,46.17
2022-08-25T20:21:48.692Z,46.50
2022-08-25T20:24:33.937Z,46.82
2022-08-25T20:27:00.469Z,46.37
2022-08-25T20:29:27.866Z,47.43
2022-08-25T20:31:54.300Z,47.69
2022-08-25T20:34:20.766Z,48.71
2022-08-25T20:36:49.676Z,48.66
2022-08-25T20:39:17.804Z,49.28
2022-08-25T20:41:48.239Z,49.57
2022-08-25T20:44:17.308Z,49.09
2022-08-25T20:46:44.241Z,49.65
2022-08-25T20:49:10.958Z,49.58
2022-08-25T20:51:38.470Z,49.67
2022-08-25T20:54:07.413Z,50.19
2022-08-25T20:56:33.955Z,50.34
2022-08-25T20:59:00.547Z,50.16
2022-08-25T21:01:37.857Z,50.36
2022-08-25T21:04:09.466Z,50.19
2022-08-25T21:06:39.603Z,50.80
2022-08-25T21:09:15.938Z,50.59
2022-08-25T21:12:22.893Z,50.50
2022-08-25T21:18:31.378Z,50.87
2022-08-25T21:21:40.029Z,51.01
2022-08-25T21:24:35.125Z,51.23
2022-08-25T21:27:30.574Z,51.61
2022-08-25T21:30:35.043Z,51.82
2022-08-25T21:33:26.273Z,52.15
2022-08-25T21:36:33.559Z,52.70
2022-08-25T21:39:32.040Z,52.39
2022-08-25T21:42:42.183Z,52.12
2022-08-25T21:45:51.782Z,52.79
2022-08-25T21:52:58.099Z,53.06
2022-08-25T21:56:07.227Z,53.65
2022-08-25T21:59:41.035Z,53.61
2022-08-25T22:15:10.939Z,56.59
2022-08-25T22:18:35.020Z,56.08
2022-08-25T22:25:48.900Z,55.30
2022-08-25T22:28:59.419Z,55.55
2022-08-25T22:32:00.842Z,55.93
2022-08-25T22:43:42.043Z,56.86
2022-08-25T22:49:40.421Z,57.49
2022-08-25T22:52:51.993Z,57.75
2022-08-25T22:56:22.814Z,57.60
2022-08-25T22:59:48.031Z,57.46
2022-08-25T23:06:32.851Z,57.33
2022-08-25T23:09:46.887Z,56.85
2022-08-25T23:16:05.962Z,57.01
2022-08-25T23:23:00.136Z,57.96
2022-08-25T23:26:11.074Z,57.82
2022-08-25T23:36:20.227Z,58.60
2022-08-25T23:39:27.035Z,59.50
2022-08-25T23:42:18.857Z,60.02
2022-08-25T23:44:58.191Z,60.25
2022-08-25T23:47:50.131Z,60.34
2022-08-25T23:51:26.599Z,61.34
2022-08-25T23:54:31.457Z,61.80
